Latest Weather Observations for Mount Magnet Airport

IDW60801

Issued at 12:32 am WST Saturday 31 January 2015 (issued every 30 minutes, with the page automatically refreshed every 10 minutes)

About weather observations | Map of weather stations | Latest weather observations for WA | Other Formats
Station Details ID: 007600 Name: MOUNT MAGNET AERO Lat: -28.12 Lon: 117.84 Height: 407.0 m
Data from the previous 72 hours. | See also: Recent months at Mount Magnet Airport
Date/Time
WST
Temp
°C
App
Temp
°C
Dew
Point
Rel
Hum
%
Delta-T
°C
Wind Press
QNH
hPa
Press
MSL
hPa
Rain
since 9 am
mm
Dir
 
Spd
km/h
Gust
km/h
Spd
kts
Gust
kts
31/12:30am 23.3 24.7 17.3 69 3.8 NE 6 9 3 5 1012.6 1009.4 7.8
31/12:00am 23.3 23.4 16.6 66 4.2 ENE 11 15 6 8 1012.1 1008.9 7.8
 
Date/Time
WST
Temp
°C
App
Temp
°C
Dew
Point
Rel
Hum
%
Delta-T
°C
Wind Press
QNH
hPa
Press
MSL
hPa
Rain
since 9 am
mm
Dir
 
Spd
km/h
Gust
km/h
Spd
kts
Gust
kts
30/11:30pm 23.6 22.0 16.1 62 4.6 SE 19 24 10 13 1011.6 1008.4 7.8
30/11:00pm 23.5 22.4 16.3 64 4.5 SE 17 20 9 11 1011.6 1008.4 7.8
30/10:30pm 23.5 22.2 16.8 66 4.2 S 19 24 10 13 1011.7 1008.5 7.8
30/10:00pm 23.7 22.7 16.7 65 4.4 S 17 24 9 13 1011.8 1008.6 7.8
30/09:30pm 23.3 22.4 16.8 67 4.1 ESE 17 22 9 12 1012.1 1008.9 7.8
30/09:00pm 23.2 23.1 17.0 68 3.9 ESE 13 17 7 9 1012.2 1009.0 7.8
30/08:30pm 23.5 21.7 16.1 63 4.6 ESE 20 30 11 16 1011.5 1008.3 7.8
30/08:00pm 23.8 19.8 16.1 62 4.8 ESE 32 41 17 22 1011.2 1008.1 7.8
30/07:30pm 24.0 21.3 16.5 63 4.7 SE 26 35 14 19 1010.5 1007.3 7.8
30/07:00pm 23.8 20.8 16.8 65 4.4 SE 28 39 15 21 1010.1 1006.9 7.8
30/06:30pm 23.8 20.7 17.5 68 4.0 SSE 30 37 16 20 1009.8 1006.6 7.8
30/06:00pm 23.9 19.4 17.4 67 4.1 SSE 37 48 20 26 1009.5 1006.3 7.8
30/05:30pm 23.5 18.9 17.0 67 4.1 SE 37 50 20 27 1009.6 1006.4 7.6
30/05:19pm 24.5 21.2 18.0 67 4.1 SE 32 50 17 27 1009.8 1006.6 7.6
30/05:00pm 24.5 24.0 19.1 72 3.5 SE 20 35 11 19 1009.3 1006.1 7.4
30/04:54pm 25.0 24.9 19.6 72 3.5 ESE 19 26 10 14 1008.9 1005.6 6.6
30/04:30pm 23.3 18.4 16.4 65 4.3 E 37 72 20 39 1007.6 1004.4 0.8
30/04:28pm 26.8 23.0 18.1 59 5.6 E 35 48 19 26 1007.8 1004.6 0.0
30/04:11pm 32.6 28.6 14.2 32 11.4 SE 28 46 15 25 1007.4 1004.2 0.0
30/04:00pm 34.0 30.7 12.9 28 12.9 SE 22 30 12 16 1007.4 1004.2 0.0
30/03:30pm 36.3 35.4 12.5 24 14.6 E 9 33 5 18 1007.6 1004.4 0.0
30/03:00pm 34.8 31.8 11.9 25 13.9 ESE 19 39 10 21 1007.9 1004.7 0.0
30/02:30pm 35.4 32.0 11.1 23 14.5 ENE 20 30 11 16 1008.4 1005.2 0.0
30/02:00pm 34.7 30.7 11.8 25 13.8 ESE 24 39 13 21 1008.8 1005.5 0.0
30/01:30pm 34.2 29.1 12.0 26 13.4 ESE 30 43 16 23 1009.2 1006.0 0.0
30/01:23pm 34.4 30.9 12.1 26 13.5 ESE 22 43 12 23 1009.2 1006.0 0.0
30/01:00pm 33.8 30.9 12.2 27 13.1 ENE 19 26 10 14 1009.6 1006.4 0.0
30/12:30pm 33.2 30.4 13.3 30 12.2 ENE 20 32 11 17 1010.0 1006.8 0.0
30/12:00pm 32.8 30.1 12.9 29 12.1 ENE 19 28 10 15 1010.3 1007.1 0.0
30/11:30am 33.0 29.7 11.5 27 12.8 E 20 32 11 17 1010.5 1007.3 0.0
30/11:00am 32.6 28.8 12.3 29 12.2 E 24 43 13 23 1010.9 1007.7 0.0
30/10:30am 31.2 28.9 13.0 33 11.0 ESE 17 24 9 13 1011.4 1008.2 0.0
30/10:00am 30.4 28.9 13.2 35 10.4 SE 13 20 7 11 1011.6 1008.4 0.0
30/09:30am 30.0 29.6 14.1 37 9.8 ENE 9 13 5 7 1011.8 1008.6 0.0
30/09:00am 28.2 28.9 15.5 46 7.9 W 6 9 3 5 1011.9 1008.7 3.0
30/08:30am 26.7 27.1 15.4 50 7.0 WNW 7 11 4 6 1011.6 1008.4 3.0
30/08:00am 26.1 26.8 16.1 54 6.2 NNW 7 11 4 6 1011.4 1008.2 3.0
30/07:30am 25.3 25.7 16.2 57 5.7 N 9 13 5 7 1011.6 1008.4 3.0
30/07:00am 24.6 25.2 16.8 62 4.9 N 9 11 5 6 1011.5 1008.3 3.0
30/06:30am 23.9 25.9 15.9 61 4.9 CALM 0 0 0 0 1011.6 1008.4 3.0
30/06:00am 23.8 24.6 16.3 63 4.7 N 7 9 4 5 1011.1 1007.9 3.0
30/05:30am 24.4 24.2 15.6 58 5.4 NNE 11 15 6 8 1010.7 1007.5 3.0
30/05:00am 23.7 24.5 17.4 68 4.0 NNE 9 13 5 7 1010.2 1007.0 3.0
30/04:30am 23.8 25.4 18.2 71 3.6 NNE 7 9 4 5 1010.2 1007.0 3.0
30/04:00am 24.0 25.9 17.7 68 4.0 SE 4 6 2 3 1009.6 1006.4 3.0
30/03:30am 24.2 27.3 18.6 71 3.6 CALM 0 6 0 3 1009.5 1006.3 3.0
30/03:00am 24.1 26.7 17.4 66 4.2 CALM 0 4 0 2 1009.5 1006.3 3.0
30/02:30am 24.3 24.6 17.1 64 4.5 SW 11 17 6 9 1009.5 1006.3 3.0
30/02:00am 24.7 25.0 15.9 58 5.5 E 9 11 5 6 1009.3 1006.1 3.0
30/01:30am 25.1 25.3 15.7 56 5.8 E 9 13 5 7 1009.2 1006.0 3.0
30/01:00am 25.3 26.0 16.2 57 5.7 E 7 11 4 6 1008.9 1005.6 3.0
30/12:30am 25.5 25.9 16.4 57 5.7 SE 9 13 5 7 1009.7 1006.5 3.0
30/12:00am 25.8 25.9 15.5 53 6.4 SSE 9 11 5 6 1010.3 1007.1 3.0
 
Date/Time
WST
Temp
°C
App
Temp
°C
Dew
Point
Rel
Hum
%
Delta-T
°C
Wind Press
QNH
hPa
Press
MSL
hPa
Rain
since 9 am
mm
Dir
 
Spd
km/h
Gust
km/h
Spd
kts
Gust
kts
29/11:30pm 25.8 25.7 16.1 55 6.0 SSE 11 13 6 7 1010.1 1006.9 3.0
29/11:00pm 25.5 25.8 16.1 56 5.9 N 9 11 5 6 1010.9 1007.7 3.0
29/10:30pm 25.3 24.7 16.7 59 5.4 E 15 20 8 11 1011.8 1008.6 3.0
29/10:00pm 25.4 27.1 17.1 60 5.2 NW 4 9 2 5 1012.2 1009.0 3.0
29/09:30pm 25.7 25.3 16.3 56 5.9 SW 13 20 7 11 1011.8 1008.6 3.0
29/09:00pm 25.9 24.0 16.7 57 5.8 WSW 22 30 12 16 1011.6 1008.4 3.0
29/08:30pm 26.8 24.7 16.1 52 6.7 WSW 22 32 12 17 1011.0 1007.8 3.0
29/08:00pm 27.3 24.6 15.6 48 7.3 W 24 35 13 19 1010.3 1007.1 3.0
29/07:30pm 27.8 24.8 15.8 48 7.5 W 26 33 14 18 1009.8 1006.6 3.0
29/07:18pm 28.9 25.0 14.3 40 8.9 W 28 39 15 21 1009.4 1006.2 3.0
29/07:00pm 29.2 29.2 15.3 42 8.7 WSW 9 15 5 8 1008.8 1005.5 3.0
29/06:30pm 30.3 27.2 12.2 33 10.8 SSE 20 28 11 15 1007.8 1004.6 3.0
29/06:00pm 30.5 28.2 12.9 34 10.6 ESE 17 24 9 13 1007.3 1004.1 3.0
29/05:30pm 31.0 28.0 12.4 32 11.2 SE 20 32 11 17 1007.0 1003.8 2.8
29/05:00pm 30.2 25.2 13.5 36 10.2 S 32 48 17 26 1006.6 1003.3 2.8
29/04:30pm 29.4 24.6 14.0 39 9.4 SSE 32 44 17 24 1006.4 1003.1 2.8
29/04:00pm 27.1 22.0 16.7 53 6.6 SSE 39 52 21 28 1006.9 1003.7 2.8
29/03:55pm 27.2 23.6 17.1 54 6.4 SSE 32 48 17 26 1006.9 1003.7 2.8
29/03:30pm 27.1 24.4 17.6 56 6.1 SW 28 37 15 20 1007.0 1003.8 2.8
29/03:09pm 25.2 19.8 16.9 60 5.2 WNW 41 57 22 31 1007.7 1004.5 1.6
29/03:00pm 26.5 20.3 17.3 57 5.9 W 46 67 25 36 1007.4 1004.2 0.8
29/02:56pm 26.2 19.2 17.3 58 5.7 WSW 50 74 27 40 1007.6 1004.4 0.6
29/02:52pm 25.8 20.2 16.6 56 5.8 WSW 41 74 22 40 1007.6 1004.4 0.6
29/02:49pm 27.1 23.4 17.0 54 6.4 W 32 74 17 40 1007.2 1004.0 0.4
29/02:48pm 28.6 25.6 16.8 48 7.5 W 28 74 15 40 1007.3 1004.1 0.2
29/02:44pm 31.6 28.0 14.3 35 10.7 WNW 26 37 14 20 1007.3 1004.1 0.0
29/02:30pm 36.6 34.6 10.0 20 15.7 ESE 11 22 6 12 1006.4 1003.1 0.0
29/02:00pm 36.4 34.3 11.3 22 15.2 ESE 13 22 7 12 1006.8 1003.6 0.0
29/01:30pm 37.2 34.2 11.9 22 15.4 SE 19 30 10 16 1007.1 1003.9 0.0
29/01:00pm 36.0 33.8 10.9 22 15.0 E 13 24 7 13 1007.9 1004.7 0.0
29/12:30pm 36.7 35.5 14.1 26 14.2 ENE 13 20 7 11 1008.5 1005.3 0.0
29/12:00pm 34.9 34.0 13.7 28 13.2 N 11 17 6 9 1009.1 1005.9 0.0
29/11:30am 35.1 33.5 13.8 27 13.2 N 15 22 8 12 1009.6 1006.4 0.0
29/11:00am 33.3 31.6 14.8 32 11.6 NNE 17 24 9 13 1009.9 1006.7 0.0
29/10:30am 33.5 32.5 15.5 34 11.4 NE 15 24 8 13 1010.2 1007.0 0.0
29/10:00am 31.9 29.9 15.0 36 10.6 NNE 19 30 10 16 1010.4 1007.2 0.0
29/09:30am 31.9 29.5 15.4 37 10.4 NNE 22 30 12 16 1010.4 1007.2 0.0
29/09:00am 31.2 29.1 15.2 38 10.0 NE 20 28 11 15 1010.3 1007.1 0.0
29/08:30am 29.7 27.1 15.0 40 9.1 NE 22 32 12 17 1010.3 1007.1 0.0
29/08:00am 28.7 25.8 15.2 43 8.4 NE 24 32 13 17 1010.4 1007.2 0.0
29/07:30am 27.4 25.9 14.1 44 8.1 ENE 15 20 8 11 1010.5 1007.3 0.0
29/07:00am 25.9 24.1 13.4 46 7.5 NE 15 20 8 11 1010.1 1006.9 0.0
29/06:30am 25.3 24.1 12.9 46 7.3 ENE 11 15 6 8 1010.0 1006.8 0.0
29/06:00am 25.4 23.9 11.9 43 7.9 ENE 11 13 6 7 1009.5 1006.3 0.0
29/05:30am 25.8 23.7 12.3 43 7.9 NE 15 20 8 11 1009.2 1006.0 0.0
29/05:00am 26.3 23.9 10.0 36 9.2 ENE 13 19 7 10 1008.9 1005.6 0.0
29/04:30am 26.3 23.7 9.2 34 9.5 ENE 13 15 7 8 1008.3 1005.1 0.0
29/04:00am 26.8 24.0 8.7 32 10.1 ENE 13 15 7 8 1008.0 1004.8 0.0
29/03:30am 27.7 24.4 8.1 29 10.8 NE 15 20 8 11 1007.8 1004.6 0.0
29/03:00am 26.1 25.2 11.4 39 8.5 ESE 7 15 4 8 1007.6 1004.4 0.0
29/02:30am 26.3 25.7 12.4 42 8.2 SE 7 9 4 5 1007.5 1004.3 0.0
29/02:00am 27.5 26.3 10.2 34 9.9 ESE 7 9 4 5 1007.6 1004.4 0.0
29/01:30am 27.5 26.2 11.1 36 9.5 ENE 9 11 5 6 1007.5 1004.3 0.0
29/01:00am 27.4 26.5 11.4 37 9.3 E 7 9 4 5 1007.7 1004.5 0.0
29/12:30am 27.9 26.7 11.5 36 9.6 E 9 11 5 6 1007.9 1004.7 0.0
29/12:00am 28.4 27.3 11.9 36 9.7 E 9 11 5 6 1008.0 1004.8 0.0
 
Date/Time
WST
Temp
°C
App
Temp
°C
Dew
Point
Rel
Hum
%
Delta-T
°C
Wind Press
QNH
hPa
Press
MSL
hPa
Rain
since 9 am
mm
Dir
 
Spd
km/h
Gust
km/h
Spd
kts
Gust
kts
28/11:30pm 29.2 27.6 11.7 34 10.3 ENE 11 15 6 8 1008.2 1005.0 0.0
28/11:00pm 29.4 28.2 12.8 36 10.0 ESE 11 13 6 7 1008.3 1005.1 0.0
28/10:30pm 29.6 29.0 13.4 37 9.8 ESE 9 11 5 6 1008.3 1005.1 0.0
28/10:00pm 30.2 28.9 12.6 34 10.6 E 11 13 6 7 1008.2 1005.0 0.0
28/09:30pm 30.8 30.3 12.7 33 10.9 ESE 7 9 4 5 1007.9 1004.7 0.0
28/09:00pm 31.6 30.5 11.9 30 11.8 E 9 11 5 6 1007.8 1004.6 0.0
28/08:30pm 32.3 30.5 12.0 29 12.2 E 13 17 7 9 1007.7 1004.5 0.0
28/08:00pm 33.0 30.8 12.1 28 12.6 E 15 20 8 11 1007.4 1004.2 0.0
28/07:30pm 33.7 31.1 12.1 27 13.0 ESE 17 20 9 11 1007.0 1003.8 0.0
28/07:00pm 34.4 32.6 12.1 26 13.5 ESE 13 17 7 9 1006.8 1003.6 0.0
28/06:30pm 35.0 31.8 12.0 25 13.9 ESE 20 28 11 15 1006.6 1003.3 0.0
28/06:00pm 35.6 33.0 11.9 24 14.4 E 17 24 9 13 1006.0 1002.8 0.0
28/05:30pm 35.6 33.3 10.6 22 14.9 ENE 13 22 7 12 1005.9 1002.7 0.0
28/05:00pm 36.0 34.1 12.9 25 14.3 ENE 15 26 8 14 1005.9 1002.7 0.0
28/04:30pm 35.2 32.9 10.3 22 14.7 ENE 13 20 7 11 1006.4 1003.1 0.0
28/04:00pm 35.0 31.6 12.6 26 13.7 E 22 28 12 15 1006.8 1003.6 0.0
28/03:30pm 34.6 30.0 13.4 28 13.1 E 30 39 16 21 1007.2 1004.0 0.0
28/03:00pm 34.1 30.8 15.1 32 12.0 SE 26 35 14 19 1007.4 1004.2 0.0
28/02:30pm 33.6 32.0 15.1 33 11.7 SE 17 35 9 19 1007.5 1004.3 0.0
28/02:00pm 34.7 34.1 14.6 30 12.7 NE 11 22 6 12 1007.8 1004.6 0.0
28/01:30pm 35.1 33.5 14.9 29 12.8 NE 17 26 9 14 1008.1 1004.9 0.0
28/01:00pm 33.5 32.1 14.5 31 11.9 NE 15 28 8 15 1008.6 1005.4 0.0
28/12:30pm 33.6 32.0 15.1 33 11.7 NE 17 24 9 13 1009.0 1005.8 0.0
28/12:00pm 33.1 30.6 15.1 33 11.3 NE 22 39 12 21 1009.3 1006.1 0.0
28/11:30am 32.9 31.2 16.3 37 10.6 NE 20 33 11 18 1009.5 1006.3 0.0
28/11:00am 32.2 29.7 16.1 38 10.3 NE 24 33 13 18 1009.9 1006.7 0.0
28/10:30am 32.1 29.3 16.4 39 10.0 NNE 26 35 14 19 1009.9 1006.7 0.0
28/10:00am 31.0 28.5 16.2 41 9.4 NE 24 32 13 17 1010.1 1006.9 0.0
28/09:30am 30.0 27.6 16.4 44 8.6 NE 24 32 13 17 1010.1 1006.9 0.0
28/09:00am 29.2 26.9 16.7 46 8.0 NE 24 33 13 18 1010.2 1007.0 9.4
28/08:30am 28.5 27.4 17.4 51 7.1 NE 19 28 10 15 1010.3 1007.1 9.4
28/08:00am 27.7 26.2 16.3 49 7.2 ENE 19 30 10 16 1010.2 1007.0 9.4
28/07:30am 26.1 25.0 17.2 58 5.6 E 19 28 10 15 1010.1 1006.9 9.4
28/07:00am 25.1 24.4 17.3 62 4.9 E 17 24 9 13 1009.9 1006.7 9.4
28/06:30am 23.8 23.6 17.5 68 4.0 E 15 20 8 11 1009.4 1006.2 9.4
28/06:00am 22.4 23.1 18.0 76 2.8 E 11 15 6 8 1009.0 1005.8 9.4
28/05:30am 22.2 23.3 18.0 77 2.7 ESE 9 13 5 7 1008.4 1005.2 9.4
28/05:00am 22.6 23.2 17.7 74 3.1 E 11 15 6 8 1008.0 1004.8 9.4
28/04:30am 22.8 23.1 17.9 74 3.1 SSE 13 17 7 9 1007.8 1004.6 9.4
28/04:00am 23.8 23.8 17.3 67 4.1 SE 13 15 7 8 1007.1 1003.9 9.4
28/03:30am 23.9 24.0 16.4 63 4.7 ENE 11 19 6 10 1007.0 1003.8 9.4
28/03:00am 23.8 22.3 16.8 65 4.4 NNE 20 28 11 15 1006.8 1003.6 9.4
28/02:30am 23.1 21.8 17.3 70 3.6 NE 20 30 11 16 1007.1 1003.9 9.4
28/02:00am 23.2 20.7 17.2 69 3.8 NNE 26 35 14 19 1007.2 1004.0 9.4
28/01:30am 22.7 19.2 17.4 72 3.3 NNE 32 39 17 21 1007.3 1004.1 9.4
28/01:00am 23.1 20.6 17.1 69 3.8 NE 26 35 14 19 1007.7 1004.5 9.4

Other Formats:

Comma delimited format used in spreadsheet applications
http://www.bom.gov.au/fwo/IDW60801/IDW60801.94429.axf

JavaScript Object Notation format (JSON) in row-major order
http://www.bom.gov.au/fwo/IDW60801/IDW60801.94429.json